Time;durP1;ratioP1;P1;durP2;ratioP2;P2;SDS_P1;SDS_P2;PMS_P1;PMS_P2;Temp;Humidity;BMP_temperature;BMP_pressure;BME280_temperature;BME280_humidity;BME280_pressure;Samples;Min_cycle;Max_cycle;Signal;HPM_P1;HPM_P2
2023/01/08 00:00:45;;;;;;;12.63;8.00;;;2.50;98.10;;;;;;5073852;28;20207;-83
2023/01/08 00:03:12;;;;;;;12.33;8.20;;;2.60;98.00;;;;;;5074320;28;20205;-84
2023/01/08 00:05:40;;;;;;;14.00;7.30;;;2.50;97.90;;;;;;5082887;28;20215;-83
2023/01/08 00:08:08;;;;;;;12.10;7.30;;;2.50;98.10;;;;;;5074223;28;20207;-84
2023/01/08 00:10:35;;;;;;;11.20;7.43;;;2.40;98.50;;;;;;5078619;28;20244;-83
2023/01/08 00:13:02;;;;;;;9.50;6.40;;;2.30;98.80;;;;;;5075400;28;20232;-83
2023/01/08 00:15:29;;;;;;;8.17;6.20;;;2.40;99.00;;;;;;5076258;28;20205;-83
2023/01/08 00:17:56;;;;;;;7.57;5.87;;;2.50;98.40;;;;;;5081621;28;20220;-84
2023/01/08 00:20:23;;;;;;;8.97;6.53;;;2.60;98.20;;;;;;5080338;28;20203;-83
2023/01/08 00:22:52;;;;;;;10.40;6.60;;;2.70;97.90;;;;;;5081024;28;20223;-83
2023/01/08 00:25:19;;;;;;;8.87;6.30;;;2.60;97.90;;;;;;5082665;28;20217;-83
2023/01/08 00:27:47;;;;;;;10.93;6.50;;;2.70;97.40;;;;;;5083135;28;20210;-83
2023/01/08 00:30:14;;;;;;;9.30;6.37;;;2.70;97.20;;;;;;5075887;28;20292;-83
2023/01/08 00:32:41;;;;;;;12.20;7.10;;;2.60;97.00;;;;;;5074405;28;20228;-84
2023/01/08 00:35:08;;;;;;;11.23;7.23;;;2.60;97.20;;;;;;5077563;28;20206;-83
2023/01/08 00:37:35;;;;;;;12.50;8.73;;;2.60;97.20;;;;;;5081392;28;20198;-83
2023/01/08 00:40:03;;;;;;;12.43;8.33;;;2.60;97.00;;;;;;5076086;28;20655;-84
2023/01/08 00:42:30;;;;;;;12.27;7.53;;;2.70;96.70;;;;;;5079598;28;20201;-83
2023/01/08 00:44:57;;;;;;;9.03;6.43;;;2.70;96.60;;;;;;5082952;28;20224;-83
2023/01/08 00:47:24;;;;;;;8.77;6.40;;;2.60;96.50;;;;;;5083824;28;20212;-83
2023/01/08 00:49:51;;;;;;;8.97;6.50;;;2.60;96.60;;;;;;5078897;28;21029;-83
2023/01/08 00:52:18;;;;;;;10.10;6.50;;;2.50;96.70;;;;;;5081196;28;20700;-83
2023/01/08 00:54:44;;;;;;;8.27;5.90;;;2.40;96.80;;;;;;5090889;28;20233;-84
2023/01/08 00:57:13;;;;;;;8.63;5.40;;;2.30;97.10;;;;;;5079266;28;20209;-83
2023/01/08 00:59:39;;;;;;;8.30;5.77;;;2.20;97.30;;;;;;5081940;28;20209;-84
2023/01/08 01:02:06;;;;;;;7.93;5.50;;;2.30;97.40;;;;;;5076926;28;20279;-83
2023/01/08 01:04:33;;;;;;;7.33;5.57;;;2.30;97.40;;;;;;5076957;28;20197;-83
2023/01/08 01:07:00;;;;;;;6.67;5.00;;;2.30;97.40;;;;;;5079533;28;20871;-83
2023/01/08 01:09:27;;;;;;;4.97;4.43;;;2.20;97.40;;;;;;5080601;28;20204;-84
2023/01/08 01:11:54;;;;;;;5.67;3.90;;;2.20;97.30;;;;;;5077286;28;20229;-83
2023/01/08 01:14:22;;;;;;;5.47;4.07;;;2.10;97.10;;;;;;5076040;28;20673;-84
2023/01/08 01:16:49;;;;;;;6.10;4.00;;;2.10;97.30;;;;;;5080914;28;20208;-84
2023/01/08 01:19:16;;;;;;;7.73;4.97;;;2.10;97.30;;;;;;5077964;28;20205;-83
2023/01/08 01:21:43;;;;;;;6.43;4.67;;;2.00;97.10;;;;;;5081168;28;20207;-83
2023/01/08 01:24:12;;;;;;;6.20;4.30;;;1.90;97.50;;;;;;5080736;28;20232;-83
2023/01/08 01:26:39;;;;;;;5.47;3.67;;;1.90;98.00;;;;;;5077021;28;20205;-83
2023/01/08 01:29:06;;;;;;;4.53;3.70;;;1.90;97.90;;;;;;5075103;28;20680;-83
2023/01/08 01:31:34;;;;;;;4.53;3.53;;;1.90;97.60;;;;;;5072471;28;20204;-83
2023/01/08 01:34:01;;;;;;;6.50;3.53;;;1.90;97.50;;;;;;5072353;28;20200;-83
2023/01/08 01:36:28;;;;;;;6.47;3.23;;;1.90;97.80;;;;;;5071526;28;20207;-83
2023/01/08 01:38:56;;;;;;;6.33;4.10;;;1.90;97.80;;;;;;5082337;28;20817;-84
2023/01/08 01:41:26;;;;;;;4.77;3.47;;;1.90;97.70;;;;;;5074096;28;20763;-84
2023/01/08 01:43:54;;;;;;;5.23;4.20;;;1.90;97.50;;;;;;5074641;28;20205;-84
2023/01/08 01:46:28;;;;;;;5.60;4.00;;;1.90;97.50;;;;;;5078105;28;20280;-83
2023/01/08 01:49:01;;;;;;;5.93;3.60;;;2.00;97.20;;;;;;5073492;28;20205;-83
2023/01/08 01:51:32;;;;;;;4.13;3.40;;;2.10;96.80;;;;;;5077958;28;20211;-83
2023/01/08 01:54:00;;;;;;;4.67;3.30;;;2.20;96.60;;;;;;5076749;28;20235;-83
2023/01/08 01:56:27;;;;;;;6.03;3.40;;;2.10;96.80;;;;;;5076419;28;20229;-83
2023/01/08 01:58:55;;;;;;;5.50;3.73;;;1.90;97.00;;;;;;5076217;28;20204;-83
2023/01/08 02:01:23;;;;;;;4.10;3.63;;;1.90;97.40;;;;;;5075742;28;20700;-83
2023/01/08 02:03:50;;;;;;;4.90;3.40;;;2.00;97.00;;;;;;5077774;28;20213;-83
2023/01/08 02:06:28;;;;;;;4.27;3.17;;;2.00;96.90;;;;;;5078131;28;20201;-84
2023/01/08 02:09:01;;;;;;;4.90;3.60;;;2.10;96.60;;;;;;5079863;28;20204;-83
2023/01/08 02:11:37;;;;;;;5.77;3.27;;;2.00;96.60;;;;;;5077118;28;22399;-84
2023/01/08 02:14:11;;;;;;;3.70;3.00;;;2.00;96.50;;;;;;5077982;28;20234;-83
2023/01/08 02:16:45;;;;;;;5.67;3.23;;;2.00;96.40;;;;;;5077167;28;20207;-83
2023/01/08 02:19:21;;;;;;;4.23;3.17;;;1.90;96.30;;;;;;5078083;28;20696;-83
2023/01/08 02:22:01;;;;;;;4.33;3.37;;;1.80;96.50;;;;;;5075920;28;20653;-83
2023/01/08 02:24:41;;;;;;;4.67;3.30;;;1.70;96.90;;;;;;5082526;28;20203;-83
2023/01/08 02:27:10;;;;;;;4.73;3.03;;;1.70;97.00;;;;;;5079144;28;20197;-83
2023/01/08 02:29:37;;;;;;;4.33;3.20;;;1.70;97.00;;;;;;5077295;28;20206;-82
2023/01/08 02:32:04;;;;;;;4.43;3.00;;;1.70;97.00;;;;;;5074512;28;20212;-83
2023/01/08 02:34:31;;;;;;;3.53;2.90;;;1.60;97.00;;;;;;5071167;28;20201;-83
2023/01/08 02:37:00;;;;;;;3.37;3.00;;;1.50;97.20;;;;;;5073125;28;20232;-83
2023/01/08 02:39:50;;;;;;;4.57;3.30;;;1.50;97.50;;;;;;5074109;28;20208;-83
2023/01/08 02:42:28;;;;;;;4.63;3.27;;;1.40;97.80;;;;;;5070461;28;20205;-83
2023/01/08 02:44:59;;;;;;;4.70;3.30;;;1.50;97.70;;;;;;5070166;28;20209;-83
2023/01/08 02:47:31;;;;;;;4.40;3.10;;;1.50;97.40;;;;;;5076165;28;20196;-83
2023/01/08 02:50:13;;;;;;;4.37;3.20;;;1.50;97.40;;;;;;5071333;28;20219;-83
2023/01/08 02:52:47;;;;;;;3.93;3.10;;;1.60;97.00;;;;;;5081451;28;20224;-83
2023/01/08 02:55:15;;;;;;;5.23;3.00;;;1.60;97.00;;;;;;5073897;28;20236;-84
2023/01/08 02:57:43;;;;;;;3.80;3.20;;;1.50;97.20;;;;;;5074841;28;20197;-83
2023/01/08 03:00:12;;;;;;;3.63;3.00;;;1.40;97.70;;;;;;5080625;28;20200;-83
2023/01/08 03:02:41;;;;;;;4.77;3.20;;;1.60;97.30;;;;;;5074033;28;20193;-82
2023/01/08 03:05:14;;;;;;;5.17;3.20;;;1.60;97.00;;;;;;5074555;28;20201;-83
2023/01/08 03:07:41;;;;;;;5.20;2.90;;;1.60;97.00;;;;;;5073807;28;20224;-83
2023/01/08 03:10:09;;;;;;;5.60;2.90;;;1.60;97.10;;;;;;5074521;28;20208;-83
2023/01/08 03:12:48;;;;;;;3.70;3.00;;;1.50;97.10;;;;;;5077202;28;20256;-83
2023/01/08 03:15:22;;;;;;;3.67;2.73;;;1.50;97.30;;;;;;5073273;28;20223;-83
2023/01/08 03:17:52;;;;;;;4.77;2.90;;;1.50;97.00;;;;;;5071931;28;20208;-83
2023/01/08 03:20:22;;;;;;;3.80;2.87;;;1.50;97.00;;;;;;5073176;28;20639;-83
2023/01/08 03:22:52;;;;;;;4.10;3.30;;;1.40;97.30;;;;;;5075426;28;20268;-83
2023/01/08 03:25:23;;;;;;;3.77;3.20;;;1.30;97.50;;;;;;5072346;28;20684;-83
2023/01/08 03:27:57;;;;;;;6.23;3.30;;;1.30;97.70;;;;;;5077333;28;20201;-83
2023/01/08 03:30:25;;;;;;;7.33;3.10;;;1.20;97.70;;;;;;5071386;28;20209;-83
2023/01/08 03:32:54;;;;;;;3.53;2.33;;;1.20;98.00;;;;;;5074225;28;20225;-84
2023/01/08 03:35:24;;;;;;;3.27;2.60;;;1.30;97.50;;;;;;5074602;28;20200;-84
2023/01/08 03:37:56;;;;;;;2.43;2.23;;;1.30;97.50;;;;;;5071683;28;20590;-83
2023/01/08 03:40:29;;;;;;;3.03;2.37;;;1.30;97.50;;;;;;5082904;28;20200;-83
2023/01/08 03:42:57;;;;;;;2.77;2.50;;;1.40;97.10;;;;;;5073605;28;20232;-83
2023/01/08 03:45:26;;;;;;;2.57;2.07;;;1.40;97.00;;;;;;5076291;28;20286;-83
2023/01/08 03:47:53;;;;;;;4.13;2.60;;;1.50;97.00;;;;;;5082736;28;20193;-83
2023/01/08 03:50:25;;;;;;;2.93;2.43;;;1.60;96.60;;;;;;5071300;28;20204;-83
2023/01/08 03:52:52;;;;;;;3.17;2.40;;;1.50;96.50;;;;;;5076225;28;20712;-83
2023/01/08 03:55:19;;;;;;;3.30;2.27;;;1.50;96.20;;;;;;5086395;28;20240;-83
2023/01/08 03:57:46;;;;;;;2.67;2.07;;;1.40;96.30;;;;;;5077870;28;20254;-83
2023/01/08 04:00:16;;;;;;;3.03;2.10;;;1.40;96.50;;;;;;5077756;28;20216;-83
2023/01/08 04:02:43;;;;;;;2.87;2.33;;;1.40;96.70;;;;;;5078752;28;20225;-83
2023/01/08 04:05:10;;;;;;;4.03;2.40;;;1.40;96.60;;;;;;5083751;28;20204;-83
2023/01/08 04:07:37;;;;;;;3.53;2.50;;;1.30;96.70;;;;;;5082959;28;20205;-83
2023/01/08 04:10:05;;;;;;;2.80;2.13;;;1.30;96.80;;;;;;5084121;28;20208;-83
2023/01/08 04:12:32;;;;;;;3.13;2.43;;;1.20;96.60;;;;;;5073475;28;20301;-83
2023/01/08 04:14:59;;;;;;;2.70;2.20;;;1.20;96.60;;;;;;5082180;28;20208;-83
2023/01/08 04:17:27;;;;;;;3.47;1.90;;;1.20;96.50;;;;;;5075987;28;20653;-83
2023/01/08 04:19:54;;;;;;;2.67;2.20;;;1.20;96.50;;;;;;5077524;28;22361;-83
2023/01/08 04:22:21;;;;;;;2.23;2.00;;;1.20;96.50;;;;;;5077165;28;20223;-83
2023/01/08 04:24:47;;;;;;;2.70;1.93;;;1.10;96.50;;;;;;5076225;28;20207;-84
2023/01/08 04:27:14;;;;;;;2.27;1.90;;;1.10;96.60;;;;;;5072261;28;20198;-83
2023/01/08 04:29:41;;;;;;;2.00;1.70;;;1.10;96.50;;;;;;5077514;28;20205;-83
2023/01/08 04:32:08;;;;;;;1.97;1.77;;;1.10;96.90;;;;;;5074491;28;20209;-84
2023/01/08 04:34:36;;;;;;;2.50;2.10;;;1.10;96.90;;;;;;5073602;28;20225;-83
2023/01/08 04:37:03;;;;;;;2.70;1.90;;;1.20;96.40;;;;;;5076165;28;20208;-84
2023/01/08 04:39:30;;;;;;;2.60;2.07;;;1.20;96.50;;;;;;5074219;28;20201;-83
2023/01/08 04:41:57;;;;;;;2.20;2.00;;;1.20;96.50;;;;;;5076447;28;20680;-83
2023/01/08 04:44:23;;;;;;;2.27;1.83;;;1.20;96.50;;;;;;5070617;28;20200;-83
2023/01/08 04:46:50;;;;;;;2.53;1.90;;;1.30;96.20;;;;;;5074549;28;20676;-83
2023/01/08 04:49:17;;;;;;;2.57;1.80;;;1.30;96.40;;;;;;5071947;28;20669;-83
2023/01/08 04:51:45;;;;;;;1.90;1.60;;;1.20;96.30;;;;;;5079181;28;20200;-83
2023/01/08 04:54:12;;;;;;;1.90;1.77;;;1.20;96.40;;;;;;5073141;28;20232;-83
2023/01/08 04:56:39;;;;;;;2.90;2.00;;;1.20;96.70;;;;;;5082372;28;20228;-83
2023/01/08 04:59:06;;;;;;;2.20;2.00;;;1.20;96.90;;;;;;5076258;28;20212;-83
2023/01/08 05:01:33;;;;;;;2.00;1.77;;;1.30;96.70;;;;;;5075427;28;20207;-83
2023/01/08 05:04:02;;;;;;;3.20;1.70;;;1.30;96.20;;;;;;5083105;28;20215;-83
2023/01/08 05:06:31;;;;;;;1.60;1.50;;;1.40;95.60;;;;;;5071618;28;20197;-83
2023/01/08 05:08:59;;;;;;;2.37;2.07;;;1.40;95.60;;;;;;5073687;28;20237;-83
2023/01/08 05:11:27;;;;;;;2.10;1.87;;;1.30;96.30;;;;;;5074831;28;20200;-83
2023/01/08 05:13:54;;;;;;;2.37;1.70;;;1.30;96.00;;;;;;5075343;28;20221;-83
2023/01/08 05:16:21;;;;;;;2.13;1.80;;;1.20;96.10;;;;;;5076149;28;20204;-83
2023/01/08 05:18:48;;;;;;;1.93;1.70;;;1.20;96.20;;;;;;5076773;28;20223;-83
2023/01/08 05:21:15;;;;;;;2.13;1.80;;;1.10;96.30;;;;;;5084420;28;20209;-83
2023/01/08 05:23:45;;;;;;;2.13;1.90;;;1.10;96.60;;;;;;5077311;28;20298;-83
2023/01/08 05:26:14;;;;;;;1.87;1.60;;;1.10;96.60;;;;;;5076353;28;20618;-84
2023/01/08 05:28:41;;;;;;;2.60;1.90;;;1.10;96.60;;;;;;5078699;28;20193;-83
2023/01/08 05:31:07;;;;;;;2.23;1.97;;;1.10;96.50;;;;;;5080787;28;20584;-83
2023/01/08 05:33:34;;;;;;;2.10;1.80;;;1.10;96.60;;;;;;5077033;28;20228;-84
2023/01/08 05:36:03;;;;;;;4.67;1.90;;;1.10;96.60;;;;;;5075797;28;20806;-83
2023/01/08 05:38:30;;;;;;;2.40;1.90;;;1.10;96.70;;;;;;5079454;28;20900;-83
2023/01/08 05:40:57;;;;;;;1.67;1.57;;;1.10;96.80;;;;;;5075242;28;20256;-83
2023/01/08 05:43:26;;;;;;;2.27;1.57;;;1.10;96.60;;;;;;5081621;28;20219;-83
2023/01/08 05:45:52;;;;;;;2.27;1.47;;;1.10;96.40;;;;;;5086759;28;20223;-83
2023/01/08 05:48:19;;;;;;;2.07;1.87;;;1.10;96.30;;;;;;5079991;28;20200;-83
2023/01/08 05:50:49;;;;;;;4.17;1.83;;;1.20;96.20;;;;;;5078576;28;20224;-83
2023/01/08 05:53:15;;;;;;;2.50;2.30;;;1.20;95.90;;;;;;5083975;28;20239;-83
2023/01/08 05:55:42;;;;;;;2.67;2.27;;;1.20;95.70;;;;;;5079828;28;20240;-83
2023/01/08 05:58:09;;;;;;;3.97;2.27;;;1.20;95.60;;;;;;5076654;28;20196;-83
2023/01/08 06:00:38;;;;;;;2.60;1.80;;;1.20;95.90;;;;;;5083234;28;20193;-83
2023/01/08 06:03:06;;;;;;;2.43;2.17;;;1.20;95.90;;;;;;5069998;28;20201;-83
2023/01/08 06:05:33;;;;;;;2.03;1.67;;;1.20;96.00;;;;;;5072826;28;20672;-84
2023/01/08 06:08:00;;;;;;;1.97;1.67;;;1.20;95.80;;;;;;5080969;28;20204;-84
2023/01/08 06:10:27;;;;;;;2.40;2.00;;;1.10;96.00;;;;;;5075819;28;20201;-83
2023/01/08 06:12:54;;;;;;;2.17;1.83;;;1.20;96.30;;;;;;5075170;28;20197;-84
2023/01/08 06:15:21;;;;;;;2.90;2.30;;;1.30;95.90;;;;;;5079831;28;20228;-84
2023/01/08 06:17:49;;;;;;;2.50;2.10;;;1.30;95.70;;;;;;5081284;28;20681;-83
2023/01/08 06:20:16;;;;;;;2.50;2.30;;;1.30;95.80;;;;;;5078268;28;20208;-84
2023/01/08 06:22:43;;;;;;;2.20;2.00;;;1.30;95.80;;;;;;5074964;28;20236;-83
2023/01/08 06:25:10;;;;;;;2.37;2.17;;;1.30;95.70;;;;;;5079689;28;20700;-83
2023/01/08 06:27:37;;;;;;;2.97;2.00;;;1.40;95.70;;;;;;5076644;28;20201;-83
2023/01/08 06:30:05;;;;;;;2.67;2.30;;;1.50;95.90;;;;;;5078366;28;20204;-83
2023/01/08 06:32:31;;;;;;;2.30;1.97;;;1.50;95.70;;;;;;5082726;28;20211;-83
2023/01/08 06:35:00;;;;;;;1.97;1.80;;;1.50;95.80;;;;;;5076543;28;20233;-83
2023/01/08 06:37:26;;;;;;;1.90;1.80;;;1.70;95.20;;;;;;5084751;28;20196;-83
2023/01/08 06:39:53;;;;;;;2.33;2.00;;;1.80;94.80;;;;;;5083366;28;20202;-83
2023/01/08 06:42:20;;;;;;;2.80;1.83;;;1.80;94.50;;;;;;5076912;28;20688;-83
2023/01/08 06:44:47;;;;;;;1.80;1.70;;;1.80;94.70;;;;;;5080544;28;20215;-83
2023/01/08 06:47:14;;;;;;;2.30;2.10;;;1.90;94.40;;;;;;5076708;28;20586;-83
2023/01/08 06:49:40;;;;;;;3.43;2.53;;;1.90;94.10;;;;;;5077055;28;20204;-83
2023/01/08 06:52:09;;;;;;;2.80;2.50;;;1.90;94.40;;;;;;5074825;28;20570;-83
2023/01/08 06:54:35;;;;;;;3.07;2.77;;;1.80;94.40;;;;;;5071618;28;20225;-83
2023/01/08 06:57:02;;;;;;;3.37;3.07;;;1.70;94.40;;;;;;5073107;28;20207;-84
2023/01/08 06:59:29;;;;;;;3.53;3.00;;;1.70;94.80;;;;;;5072510;28;20211;-83
2023/01/08 07:01:56;;;;;;;3.50;3.00;;;1.60;95.40;;;;;;5080293;28;20486;-83
2023/01/08 07:04:23;;;;;;;3.10;2.80;;;1.50;95.60;;;;;;5077317;28;20209;-83
2023/01/08 07:06:50;;;;;;;2.77;2.20;;;1.50;95.70;;;;;;5077288;28;20201;-83
2023/01/08 07:09:18;;;;;;;2.60;2.40;;;1.50;95.90;;;;;;5074630;28;20205;-83
2023/01/08 07:11:45;;;;;;;4.27;2.30;;;1.50;96.00;;;;;;5078900;28;20209;-82
2023/01/08 07:14:12;;;;;;;2.40;2.07;;;1.50;95.90;;;;;;5082284;28;20228;-83
2023/01/08 07:16:38;;;;;;;2.53;1.93;;;1.60;95.80;;;;;;5079334;28;20844;-83
2023/01/08 07:19:05;;;;;;;2.20;2.00;;;1.60;95.80;;;;;;5066279;28;20202;-83
2023/01/08 07:21:33;;;;;;;2.13;1.60;;;1.70;95.60;;;;;;5074670;28;20192;-83
2023/01/08 07:23:59;;;;;;;2.73;2.00;;;1.90;95.10;;;;;;5077202;28;20370;-83
2023/01/08 07:26:27;;;;;;;2.30;1.90;;;2.00;94.70;;;;;;5076410;28;20208;-82
2023/01/08 07:28:54;;;;;;;2.10;1.77;;;2.00;94.40;;;;;;5073666;28;20200;-79
2023/01/08 07:31:21;;;;;;;2.20;2.00;;;2.00;94.40;;;;;;5071693;28;20205;-82
2023/01/08 07:33:48;;;;;;;2.63;1.83;;;2.00;94.40;;;;;;5074584;28;20232;-83
2023/01/08 07:36:15;;;;;;;2.30;1.80;;;2.00;94.50;;;;;;5071234;28;21019;-82
2023/01/08 07:38:42;;;;;;;2.07;1.80;;;2.00;95.00;;;;;;5072614;28;20282;-84
2023/01/08 07:41:09;;;;;;;4.57;2.20;;;2.00;95.00;;;;;;5065792;28;20431;-83
2023/01/08 07:43:37;;;;;;;2.13;1.90;;;2.10;95.30;;;;;;5073822;28;20607;-82
2023/01/08 07:46:04;;;;;;;2.33;2.13;;;2.20;95.00;;;;;;5076602;28;20566;-86
2023/01/08 07:48:31;;;;;;;3.97;2.80;;;2.40;94.80;;;;;;5070675;28;20210;-83
2023/01/08 07:51:02;;;;;;;3.17;2.20;;;2.50;94.50;;;;;;5073871;28;20661;-80
2023/01/08 07:53:29;;;;;;;3.70;3.10;;;2.60;94.60;;;;;;5070984;28;20625;-81
2023/01/08 07:55:59;;;;;;;2.80;2.47;;;2.70;94.30;;;;;;5074234;28;20262;-81
2023/01/08 07:58:26;;;;;;;5.37;3.37;;;2.60;94.30;;;;;;5070229;28;20208;-81
2023/01/08 08:00:55;;;;;;;3.53;3.03;;;2.50;94.50;;;;;;5074090;28;20201;-82
2023/01/08 08:03:22;;;;;;;6.33;4.90;;;2.50;94.50;;;;;;5073638;28;20658;-81
2023/01/08 08:05:49;;;;;;;7.43;4.53;;;2.60;94.60;;;;;;5070668;28;20212;-83
2023/01/08 08:08:16;;;;;;;12.67;6.80;;;2.60;94.60;;;;;;5071865;28;20562;-81
2023/01/08 08:10:44;;;;;;;12.00;7.77;;;2.60;94.60;;;;;;5068323;28;20688;-81
2023/01/08 08:13:11;;;;;;;12.87;7.77;;;2.60;94.60;;;;;;5079593;28;20664;-81
2023/01/08 08:15:39;;;;;;;12.57;8.57;;;2.60;94.60;;;;;;5075244;28;20225;-82
2023/01/08 08:18:08;;;;;;;15.70;8.93;;;2.70;94.60;;;;;;5075905;28;20622;-83
2023/01/08 08:20:35;;;;;;;15.37;9.17;;;2.60;94.60;;;;;;5074048;28;20200;-83
2023/01/08 08:23:03;;;;;;;12.23;8.33;;;2.70;94.60;;;;;;5076755;28;20692;-83
2023/01/08 08:25:31;;;;;;;15.27;9.80;;;2.80;94.60;;;;;;5074055;28;20206;-85
2023/01/08 08:28:00;;;;;;;24.40;17.00;;;2.90;94.60;;;;;;5076712;28;20744;-81
2023/01/08 08:30:28;;;;;;;18.40;12.57;;;3.10;94.00;;;;;;5075887;28;20211;-83
2023/01/08 08:32:55;;;;;;;16.60;11.63;;;3.20;93.70;;;;;;5080493;28;20209;-83
2023/01/08 08:35:24;;;;;;;15.43;10.57;;;3.30;93.80;;;;;;5080697;28;20665;-85
2023/01/08 08:37:51;;;;;;;13.10;9.20;;;3.40;93.30;;;;;;5079061;28;20217;-82
2023/01/08 08:40:18;;;;;;;11.37;8.43;;;3.50;92.80;;;;;;5080042;28;20201;-83
2023/01/08 08:42:44;;;;;;;14.33;9.80;;;3.50;93.00;;;;;;5077032;28;20200;-84
2023/01/08 08:45:11;;;;;;;9.67;6.53;;;3.60;93.60;;;;;;5072918;28;20201;-84
2023/01/08 08:47:38;;;;;;;10.43;7.33;;;3.70;92.90;;;;;;5077821;28;20205;-89
2023/01/08 08:50:06;;;;;;;8.13;6.27;;;3.80;92.50;;;;;;5077209;28;20280;-83
2023/01/08 08:52:36;;;;;;;7.70;5.23;;;3.80;92.60;;;;;;5075281;28;20674;-85
2023/01/08 08:55:03;;;;;;;5.40;4.13;;;4.10;91.50;;;;;;5075130;28;20322;-84
2023/01/08 08:57:29;;;;;;;5.50;4.00;;;4.30;90.70;;;;;;5077023;28;20205;-85
2023/01/08 08:59:57;;;;;;;5.77;3.63;;;4.40;89.80;;;;;;5081446;28;20212;-84
2023/01/08 09:02:23;;;;;;;5.53;4.30;;;4.50;87.60;;;;;;5078850;28;20197;-84
2023/01/08 09:04:50;;;;;;;4.53;3.37;;;4.40;85.30;;;;;;5075542;28;20579;-86
2023/01/08 09:07:17;;;;;;;5.10;3.07;;;4.40;87.30;;;;;;5077407;28;20201;-87
2023/01/08 09:09:45;;;;;;;5.33;4.00;;;4.40;87.00;;;;;;5072780;28;20197;-84
2023/01/08 09:12:12;;;;;;;5.53;3.40;;;4.60;85.70;;;;;;5075897;28;20197;-86
2023/01/08 09:14:39;;;;;;;5.30;3.43;;;4.70;85.50;;;;;;5075809;28;20575;-88
2023/01/08 09:17:07;;;;;;;4.33;3.57;;;5.00;84.10;;;;;;5077534;28;20212;-88
2023/01/08 09:19:34;;;;;;;4.20;3.30;;;5.30;82.80;;;;;;5073210;28;20673;-88
2023/01/08 09:22:02;;;;;;;7.10;3.35;;;5.40;83.50;;;;;;5073915;28;20677;-87
2023/01/08 09:24:31;;;;;;;5.40;3.60;;;5.60;80.80;;;;;;5072605;28;20253;-87
2023/01/08 09:26:59;;;;;;;7.72;4.43;;;5.80;80.50;;;;;;5075424;28;20209;-87
2023/01/08 09:29:26;;;;;;;6.15;4.15;;;5.80;80.80;;;;;;5073464;28;20210;-87
2023/01/08 09:31:53;;;;;;;4.85;3.97;;;5.70;81.60;;;;;;5077793;28;20212;-88
2023/01/08 09:34:20;;;;;;;5.45;4.22;;;5.80;82.50;;;;;;5082010;28;20204;-87
2023/01/08 09:36:47;;;;;;;5.85;3.47;;;5.80;82.00;;;;;;5073674;28;20231;-88
2023/01/08 09:39:14;;;;;;;4.15;3.40;;;5.90;82.10;;;;;;5077971;28;20208;-87
2023/01/08 09:41:44;;;;;;;4.50;3.85;;;6.00;82.90;;;;;;5076524;28;20220;-86
2023/01/08 09:44:17;;;;;;;7.32;4.00;;;6.00;81.10;;;;;;5079498;28;20228;-88
2023/01/08 09:46:45;;;;;;;4.95;3.38;;;6.10;81.20;;;;;;5082430;28;20564;-86
2023/01/08 09:49:17;;;;;;;4.97;3.78;;;6.20;82.20;;;;;;5078239;28;20197;-87
2023/01/08 09:51:43;;;;;;;4.43;3.40;;;6.30;81.30;;;;;;5079785;28;20207;-86
2023/01/08 09:54:15;;;;;;;4.72;3.92;;;6.50;80.40;;;;;;5080573;28;20200;-87
2023/01/08 09:56:42;;;;;;;4.22;3.45;;;6.80;79.80;;;;;;5076523;28;20251;-86
2023/01/08 09:59:17;;;;;;;4.63;3.75;;;7.10;73.60;;;;;;5074015;28;20569;-87
2023/01/08 10:01:45;;;;;;;4.35;3.67;;;7.40;72.60;;;;;;5075169;28;20203;-87
2023/01/08 10:04:16;;;;;;;4.32;3.42;;;7.50;65.80;;;;;;5076906;28;20602;-87
2023/01/08 10:06:50;;;;;;;6.15;3.20;;;7.60;65.00;;;;;;5075273;28;20246;-87
2023/01/08 10:09:17;;;;;;;4.50;3.33;;;7.60;59.60;;;;;;5078152;28;20204;-89
2023/01/08 10:11:47;;;;;;;5.05;3.38;;;7.60;56.70;;;;;;5078827;28;20201;-89
2023/01/08 10:14:22;;;;;;;5.00;3.40;;;7.50;57.40;;;;;;5079320;28;20215;-88
2023/01/08 10:16:53;;;;;;;3.90;2.90;;;7.60;57.60;;;;;;5080904;28;20572;-87
2023/01/08 10:19:20;;;;;;;5.45;3.50;;;7.50;58.10;;;;;;5078850;28;20204;-89
2023/01/08 10:21:47;;;;;;;3.55;3.03;;;7.70;57.60;;;;;;5073792;28;20649;-88
2023/01/08 10:24:15;;;;;;;4.47;2.80;;;7.80;61.00;;;;;;5072116;28;20227;-88
2023/01/08 10:26:42;;;;;;;3.42;2.70;;;8.10;53.90;;;;;;5078354;28;20201;-89
2023/01/08 10:29:13;;;;;;;2.83;2.42;;;8.30;49.70;;;;;;5075183;28;20236;-89
2023/01/08 10:31:51;;;;;;;2.72;2.22;;;8.40;47.10;;;;;;5076138;28;20243;-89
2023/01/08 10:34:35;;;;;;;2.78;2.28;;;8.50;47.20;;;;;;5078574;28;20193;-87
2023/01/08 10:37:13;;;;;;;2.10;1.80;;;8.30;47.00;;;;;;5075994;28;20656;-88
2023/01/08 10:39:47;;;;;;;2.63;1.70;;;8.50;47.10;;;;;;5076123;28;20200;-87
2023/01/08 10:42:17;;;;;;;2.38;1.92;;;8.60;44.90;;;;;;5069893;28;20563;-85
2023/01/08 10:44:55;;;;;;;2.50;2.03;;;8.70;43.10;;;;;;5074039;28;20681;-86
2023/01/08 10:47:24;;;;;;;2.05;1.85;;;8.70;42.20;;;;;;5078506;28;20196;-86
2023/01/08 10:49:51;;;;;;;1.75;1.65;;;8.60;43.00;;;;;;5080258;28;20632;-87
2023/01/08 10:52:27;;;;;;;2.08;1.70;;;8.60;42.20;;;;;;5075992;28;20204;-86
2023/01/08 10:54:54;;;;;;;1.83;1.67;;;8.60;42.80;;;;;;5080565;28;20237;-86
2023/01/08 10:57:24;;;;;;;2.20;1.75;;;8.70;45.50;;;;;;5081470;28;20208;-88
2023/01/08 10:59:51;;;;;;;1.98;1.77;;;8.70;41.60;;;;;;5076650;28;20691;-87
2023/01/08 11:02:29;;;;;;;3.08;1.70;;;8.70;40.70;;;;;;5075846;28;20201;-86
2023/01/08 11:04:58;;;;;;;1.63;1.50;;;8.80;41.50;;;;;;5079644;28;20208;-86
2023/01/08 11:07:26;;;;;;;2.30;1.63;;;8.80;39.60;;;;;;5077185;28;20205;-86
2023/01/08 11:09:54;;;;;;;1.73;1.60;;;8.80;39.40;;;;;;5077781;28;20212;-86
2023/01/08 11:12:42;;;;;;;2.25;1.67;;;8.60;39.50;;;;;;5076408;28;20323;-86
2023/01/08 11:15:27;;;;;;;1.50;1.40;;;8.40;41.00;;;;;;5070075;28;20231;-85
2023/01/08 11:18:11;;;;;;;2.35;1.60;;;8.30;42.70;;;;;;5079248;28;20204;-86
2023/01/08 11:20:40;;;;;;;1.90;1.80;;;8.10;45.30;;;;;;5075918;28;20209;-85
2023/01/08 11:23:19;;;;;;;1.55;1.45;;;8.10;43.90;;;;;;5074149;28;20695;-87
2023/01/08 11:25:56;;;;;;;1.83;1.40;;;8.00;44.10;;;;;;5073465;28;20204;-86
2023/01/08 11:28:30;;;;;;;2.20;1.77;;;8.00;43.90;;;;;;5075396;28;20204;-85
2023/01/08 11:31:08;;;;;;;1.75;1.65;;;8.30;43.00;;;;;;5071456;28;20711;-87
2023/01/08 11:33:40;;;;;;;2.47;2.30;;;8.50;42.70;;;;;;5067017;28;20221;-86
2023/01/08 11:36:13;;;;;;;3.33;2.50;;;8.70;41.40;;;;;;5056736;28;20427;-86
2023/01/08 11:38:40;;;;;;;3.58;3.28;;;8.60;39.40;;;;;;5035837;28;20810;-86
2023/01/08 11:41:21;;;;;;;4.97;2.78;;;8.60;38.70;;;;;;5061422;28;20224;-87
2023/01/08 11:44:12;;;;;;;3.30;2.10;;;8.60;38.90;;;;;;5065648;28;20704;-85
2023/01/08 11:46:47;;;;;;;5.25;2.70;;;8.60;39.00;;;;;;5081111;28;20206;-87
2023/01/08 11:49:33;;;;;;;3.47;2.20;;;8.70;42.10;;;;;;5074494;28;20588;-87
2023/01/08 11:52:12;;;;;;;3.42;2.35;;;8.80;42.40;;;;;;5080181;28;20209;-86
2023/01/08 11:54:58;;;;;;;4.53;2.20;;;8.90;39.20;;;;;;5078607;28;20735;-86
2023/01/08 11:57:37;;;;;;;4.00;2.00;;;9.10;37.80;;;;;;5073518;28;20205;-89
2023/01/08 12:00:19;;;;;;;1.92;1.67;;;9.30;36.00;;;;;;5076869;28;20201;-87
2023/01/08 12:02:53;;;;;;;2.05;1.70;;;9.50;36.10;;;;;;5079822;28;20201;-86
2023/01/08 12:05:31;;;;;;;1.98;1.80;;;9.70;35.80;;;;;;5072880;28;20200;-85
2023/01/08 12:08:03;;;;;;;2.65;1.70;;;9.60;33.70;;;;;;5081857;28;20223;-86
2023/01/08 12:10:39;;;;;;;2.20;1.80;;;9.70;34.30;;;;;;5085882;28;20207;-86
2023/01/08 12:13:19;;;;;;;2.50;2.30;;;9.60;37.70;;;;;;5079200;28;20208;-87
2023/01/08 12:15:59;;;;;;;3.75;2.50;;;9.50;39.50;;;;;;5080456;28;20221;-86
2023/01/08 12:18:42;;;;;;;2.80;2.15;;;9.60;36.20;;;;;;5077864;28;20200;-86
2023/01/08 12:21:15;;;;;;;2.20;1.90;;;9.40;35.80;;;;;;5085136;28;20204;-88
2023/01/08 12:24:16;;;;;;;3.22;2.58;;;9.30;36.40;;;;;;5077139;28;20240;-85
2023/01/08 12:27:32;;;;;;;2.42;1.95;;;9.30;36.10;;;;;;5115262;27;20626;-86
2023/01/08 12:30:13;;;;;;;4.50;2.30;;;9.30;36.20;;;;;;5121999;27;20661;-87
2023/01/08 12:32:43;;;;;;;5.60;2.05;;;9.20;36.30;;;;;;5106238;27;20202;-87
2023/01/08 12:35:15;;;;;;;2.70;2.50;;;9.20;39.50;;;;;;5106947;27;20206;-86
2023/01/08 12:38:04;;;;;;;8.65;3.28;;;9.10;39.50;;;;;;5094341;27;20196;-86
2023/01/08 12:40:33;;;;;;;5.43;2.90;;;9.10;39.60;;;;;;5098065;27;20195;-86
2023/01/08 12:43:08;;;;;;;4.03;2.45;;;9.10;39.80;;;;;;5100166;27;20195;-86
2023/01/08 12:45:39;;;;;;;3.03;2.30;;;9.00;40.80;;;;;;5115803;27;20219;-85
2023/01/08 12:48:09;;;;;;;4.65;3.10;;;9.00;40.80;;;;;;5117288;27;20571;-87
2023/01/08 12:50:43;;;;;;;4.20;2.80;;;8.90;39.40;;;;;;5116455;27;20202;-87
2023/01/08 12:53:19;;;;;;;5.20;2.80;;;8.90;39.70;;;;;;5116101;27;20202;-87
2023/01/08 12:55:55;;;;;;;3.85;2.63;;;8.90;40.10;;;;;;5118084;27;20199;-86
2023/01/08 12:58:34;;;;;;;7.65;2.97;;;8.90;39.10;;;;;;5122358;27;20198;-87
2023/01/08 13:01:11;;;;;;;3.35;2.83;;;8.80;39.90;;;;;;5123649;27;20191;-87
2023/01/08 13:03:39;;;;;;;4.63;2.33;;;8.80;40.60;;;;;;5114311;27;20667;-86
2023/01/08 13:06:11;;;;;;;3.60;2.90;;;8.80;38.50;;;;;;5110495;27;20222;-84
2023/01/08 13:08:41;;;;;;;3.72;2.47;;;8.80;39.80;;;;;;5105275;27;20703;-85